createdAt,value
2023-02-18T00:04:43.714Z,82.23
2023-02-18T00:09:43.660Z,81.62
2023-02-18T00:14:43.780Z,83.25
2023-02-18T00:19:43.545Z,83.36
2023-02-18T00:24:43.481Z,81.93
2023-02-18T00:29:43.391Z,81.65
2023-02-18T00:34:43.346Z,84.22
2023-02-18T00:39:43.248Z,82.71
2023-02-18T00:44:43.186Z,81.96
2023-02-18T00:49:43.146Z,81.15
2023-02-18T00:54:43.065Z,81.86
2023-02-18T00:59:43.009Z,81.15
2023-02-18T01:04:42.949Z,81.43
2023-02-18T01:09:42.874Z,82.82
2023-02-18T01:14:42.802Z,81.63
2023-02-18T01:19:42.736Z,81.59
2023-02-18T01:24:43.130Z,80.16
2023-02-18T01:29:42.585Z,79.96
2023-02-18T01:34:42.521Z,81.38
2023-02-18T01:39:42.451Z,80.57
2023-02-18T01:44:42.389Z,79.72
2023-02-18T01:49:42.354Z,81.77
2023-02-18T01:54:42.286Z,80.64
2023-02-18T01:59:42.192Z,80.54
2023-02-18T02:04:42.133Z,81.71
2023-02-18T02:09:42.082Z,81.43
2023-02-18T02:14:41.981Z,82.50
2023-02-18T02:19:41.948Z,84.45
2023-02-18T02:24:41.915Z,85.03
2023-02-18T02:29:41.795Z,84.10
2023-02-18T02:34:41.715Z,84.88
2023-02-18T02:39:41.666Z,83.90
2023-02-18T02:44:41.598Z,82.67
2023-02-18T02:49:41.524Z,82.87
2023-02-18T02:54:41.514Z,83.28
2023-02-18T02:59:41.401Z,81.71
2023-02-18T03:04:41.397Z,79.52
2023-02-18T03:09:41.282Z,80.03
2023-02-18T03:14:41.195Z,76.51
2023-02-18T03:19:41.104Z,75.89
2023-02-18T03:24:41.064Z,75.69
2023-02-18T03:29:40.978Z,75.96
2023-02-18T03:34:40.901Z,74.94
2023-02-18T03:39:40.878Z,74.94
2023-02-18T03:44:40.782Z,76.78
2023-02-18T03:49:40.709Z,75.65
2023-02-18T03:54:40.666Z,75.99
2023-02-18T03:59:40.621Z,75.69
2023-02-18T04:04:40.530Z,76.51
2023-02-18T04:09:40.459Z,76.31
2023-02-18T04:14:40.385Z,79.89
2023-02-18T04:19:40.334Z,78.39
2023-02-18T04:24:40.250Z,77.57
2023-02-18T04:29:40.179Z,80.23
2023-02-18T04:34:40.103Z,79.62
2023-02-18T04:39:40.054Z,78.08
2023-02-18T04:44:39.976Z,79.04
2023-02-18T04:49:39.918Z,80.99
2023-02-18T04:54:39.840Z,79.66
2023-02-18T04:59:39.774Z,81.54
2023-02-18T05:04:39.707Z,81.54
2023-02-18T05:09:39.688Z,81.50
2023-02-18T05:14:39.586Z,80.85
2023-02-18T05:19:39.523Z,81.26
2023-02-18T05:24:39.447Z,80.23
2023-02-18T05:29:39.357Z,80.33
2023-02-18T05:34:39.283Z,81.36
2023-02-18T05:39:39.216Z,81.98
2023-02-18T05:44:39.201Z,80.88
2023-02-18T05:49:39.125Z,81.50
2023-02-18T05:54:39.018Z,82.32
2023-02-18T05:59:38.956Z,82.73
2023-02-18T06:04:38.876Z,83.04
2023-02-18T06:09:38.828Z,83.76
2023-02-18T06:14:40.868Z,85.23
2023-02-18T06:19:38.680Z,86.57
2023-02-18T06:24:38.626Z,88.21
2023-02-18T06:29:38.609Z,89.78
2023-02-18T06:34:38.522Z,91.02
2023-02-18T06:39:38.464Z,92.04
2023-02-18T06:44:38.350Z,92.76
2023-02-18T06:49:38.340Z,94.34
2023-02-18T06:54:38.286Z,95.27
2023-02-18T06:59:38.249Z,95.98
2023-02-18T07:04:38.060Z,96.40
2023-02-18T07:09:38.093Z,97.67
2023-02-18T07:14:37.958Z,97.83
2023-02-18T07:19:38.532Z,97.63
2023-02-18T07:24:37.887Z,97.53
2023-02-18T07:29:38.729Z,97.73
2023-02-18T07:34:37.787Z,98.25
2023-02-18T07:39:37.621Z,98.55
2023-02-18T07:44:37.582Z,98.76
2023-02-18T07:49:37.591Z,99.99
2023-02-18T07:54:37.411Z,87.23
2023-02-18T07:59:37.418Z,90.70
2023-02-18T08:04:37.327Z,93.80
2023-02-18T08:09:37.296Z,95.59
2023-02-18T08:14:37.193Z,97.23
2023-02-18T08:19:37.084Z,98.46
2023-02-18T08:24:37.067Z,98.93
2023-02-18T08:29:36.985Z,97.64
2023-02-18T08:34:37.221Z,97.54
2023-02-18T08:39:39.295Z,97.17
2023-02-18T08:44:36.991Z,97.95
2023-02-18T08:49:36.879Z,97.54
2023-02-18T08:54:45.169Z,98.77
2023-02-18T08:59:36.619Z,99.44
2023-02-18T09:04:36.479Z,97.86
2023-02-18T09:09:36.785Z,97.29
2023-02-18T09:14:36.347Z,97.49
2023-02-18T09:19:36.369Z,97.86
2023-02-18T09:24:36.198Z,97.50
2023-02-18T09:29:36.235Z,97.55
2023-02-18T09:34:36.083Z,96.48
2023-02-18T09:39:36.014Z,95.66
2023-02-18T09:44:36.248Z,95.15
2023-02-18T09:49:37.090Z,94.29
2023-02-18T09:54:35.815Z,93.84
2023-02-18T09:59:35.772Z,94.65
2023-02-18T10:04:35.956Z,94.71
2023-02-18T10:09:36.678Z,94.15
2023-02-18T10:14:35.942Z,92.29
2023-02-18T10:19:35.487Z,89.32
2023-02-18T10:24:35.446Z,77.64
2023-02-18T10:29:35.438Z,76.83
2023-02-18T10:34:35.304Z,80.94
2023-02-18T10:39:35.338Z,83.14
2023-02-18T10:44:35.148Z,80.66
2023-02-18T10:49:35.273Z,81.56
2023-02-18T10:54:35.161Z,82.26
2023-02-18T10:59:35.071Z,82.12
2023-02-18T11:04:35.192Z,81.52
2023-02-18T11:09:35.019Z,83.18
2023-02-18T11:14:34.911Z,80.71
2023-02-18T11:19:34.754Z,79.65
2023-02-18T11:24:34.811Z,79.04
2023-02-18T11:29:34.706Z,79.35
2023-02-18T11:34:34.717Z,80.80
2023-02-18T11:39:34.547Z,85.17
2023-02-18T11:44:34.504Z,79.94
2023-02-18T11:49:34.414Z,79.46
2023-02-18T11:54:34.331Z,76.73
2023-02-18T11:59:34.960Z,75.21
2023-02-18T12:04:34.148Z,77.10
2023-02-18T12:09:34.258Z,76.23
2023-02-18T12:14:33.981Z,76.97
2023-02-18T12:19:33.936Z,76.12
2023-02-18T12:24:33.999Z,76.80
2023-02-18T12:29:36.049Z,77.31
2023-02-18T12:34:33.872Z,79.00
2023-02-18T12:39:35.966Z,78.88
2023-02-18T12:44:33.609Z,78.17
2023-02-18T12:49:33.561Z,79.46
2023-02-18T12:54:33.480Z,80.58
2023-02-18T12:59:33.455Z,81.49
2023-02-18T13:04:36.549Z,80.78
2023-02-18T13:09:33.237Z,81.23
2023-02-18T13:14:33.179Z,81.33
2023-02-18T13:19:33.164Z,80.07
2023-02-18T13:24:33.091Z,76.41
2023-02-18T13:29:33.033Z,77.36
2023-02-18T13:34:32.910Z,75.12
2023-02-18T13:39:32.826Z,76.95
2023-02-18T13:44:33.752Z,78.31
2023-02-18T13:49:32.685Z,80.38
2023-02-18T13:54:32.735Z,78.15
2023-02-18T13:59:32.802Z,79.57
2023-02-18T14:04:32.691Z,78.08
2023-02-18T14:09:32.507Z,78.28
2023-02-18T14:14:32.398Z,79.61
2023-02-18T14:19:32.407Z,77.71
2023-02-18T14:24:32.402Z,77.37
2023-02-18T14:29:32.522Z,76.72
2023-02-18T14:34:32.341Z,77.64
2023-02-18T14:39:32.253Z,77.51
2023-02-18T14:44:33.338Z,77.06
2023-02-18T14:49:32.688Z,77.47
2023-02-18T14:54:33.344Z,77.26
2023-02-18T14:59:32.259Z,75.33
2023-02-18T15:04:32.057Z,78.32
2023-02-18T15:09:31.950Z,81.17
2023-02-18T15:14:31.886Z,81.93
2023-02-18T15:19:31.770Z,82.54
2023-02-18T15:24:31.535Z,77.97
2023-02-18T15:29:31.448Z,79.41
2023-02-18T15:34:31.449Z,81.26
2023-02-18T15:39:31.725Z,80.55
2023-02-18T15:44:31.379Z,79.63
2023-02-18T15:49:31.163Z,80.68
2023-02-18T15:54:31.104Z,78.77
2023-02-18T15:59:31.036Z,77.51
2023-02-18T16:04:30.976Z,78.12
2023-02-18T16:09:30.945Z,77.33
2023-02-18T16:14:30.862Z,77.87
2023-02-18T16:19:30.802Z,77.37
2023-02-18T16:24:30.733Z,76.35
2023-02-18T16:29:30.639Z,75.74
2023-02-18T16:34:30.641Z,78.39
2023-02-18T16:39:30.537Z,77.81
2023-02-18T16:44:30.486Z,76.18
2023-02-18T16:49:30.383Z,77.37
2023-02-18T16:54:30.407Z,78.66
2023-02-18T16:59:31.007Z,76.86
2023-02-18T17:04:30.750Z,76.65
2023-02-18T17:09:30.395Z,75.33
2023-02-18T17:14:30.677Z,76.62
2023-02-18T17:19:30.181Z,77.47
2023-02-18T17:24:30.222Z,77.87
2023-02-18T17:29:30.180Z,77.67
2023-02-18T17:34:29.936Z,79.34
2023-02-18T17:39:30.069Z,80.73
2023-02-18T17:44:29.742Z,80.26
2023-02-18T17:49:30.773Z,81.11
2023-02-18T17:54:29.567Z,79.99
2023-02-18T17:59:29.612Z,81.41
2023-02-18T18:05:49.086Z,79.54
2023-02-18T18:10:49.401Z,81.41
2023-02-18T18:15:47.406Z,80.05
2023-02-18T18:20:47.379Z,78.02
2023-02-18T18:25:47.295Z,78.80
2023-02-18T18:30:47.401Z,77.71
2023-02-18T18:35:47.377Z,78.59
2023-02-18T18:40:47.298Z,79.34
2023-02-18T18:45:47.052Z,79.61
2023-02-18T18:50:46.974Z,79.54
2023-02-18T18:55:46.870Z,83.11
2023-02-18T19:00:46.833Z,81.62
2023-02-18T19:05:47.007Z,82.41
2023-02-18T19:10:46.764Z,79.24
2023-02-18T19:15:46.731Z,78.56
2023-02-18T19:20:46.589Z,80.33
2023-02-18T19:25:46.471Z,80.02
2023-02-18T19:30:46.503Z,79.99
2023-02-18T19:35:46.410Z,81.52
2023-02-18T19:40:46.309Z,81.86
2023-02-18T19:45:46.236Z,79.93
2023-02-18T19:50:46.200Z,81.52
2023-02-18T19:55:46.089Z,81.96
2023-02-18T20:00:46.056Z,82.61
2023-02-18T20:05:45.949Z,82.96
2023-02-18T20:10:45.928Z,84.22
2023-02-18T20:15:45.987Z,84.80
2023-02-18T20:20:45.789Z,83.37
2023-02-18T20:25:45.734Z,84.12
2023-02-18T20:30:45.698Z,84.42
2023-02-18T20:35:45.708Z,83.30
2023-02-18T20:40:45.622Z,85.14
2023-02-18T20:45:45.663Z,82.55
2023-02-18T20:50:45.401Z,84.08
2023-02-18T20:55:45.352Z,81.09
2023-02-18T21:00:45.308Z,83.33
2023-02-18T21:05:45.181Z,82.71
2023-02-18T21:10:45.121Z,82.65
2023-02-18T21:15:45.075Z,83.30
2023-02-18T21:20:44.975Z,83.81
2023-02-18T21:25:45.087Z,83.10
2023-02-18T21:30:44.861Z,83.81
2023-02-18T21:35:44.958Z,83.71
2023-02-18T21:40:44.690Z,85.04
2023-02-18T21:45:44.694Z,83.87
2023-02-18T21:50:44.690Z,84.18
2023-02-18T21:55:55.310Z,84.08
2023-02-18T22:00:45.555Z,84.53
2023-02-18T22:05:44.457Z,86.26
2023-02-18T22:10:44.366Z,86.10
2023-02-18T22:15:44.327Z,86.82
2023-02-18T22:20:44.306Z,86.55
2023-02-18T22:25:44.148Z,86.41
2023-02-18T22:30:44.120Z,85.18
2023-02-18T22:35:44.261Z,85.65
2023-02-18T22:40:43.902Z,82.14
2023-02-18T22:45:43.877Z,82.45
2023-02-18T22:50:43.870Z,82.96
2023-02-18T22:55:43.708Z,86.06
2023-02-18T23:00:43.753Z,86.98
2023-02-18T23:05:50.965Z,86.88
2023-02-18T23:10:43.544Z,87.23
2023-02-18T23:15:43.468Z,87.77
2023-02-18T23:20:43.374Z,88.59
2023-02-18T23:25:43.406Z,88.53
2023-02-18T23:30:43.385Z,88.74
2023-02-18T23:35:43.540Z,88.94
2023-02-18T23:40:43.141Z,89.31
2023-02-18T23:45:43.142Z,85.79
2023-02-18T23:50:43.058Z,86.00
2023-02-18T23:55:42.922Z,86.14
